sensor_id;sensor_type;location;lat;lon;timestamp;pressure;altitude;pressure_sealevel;temperature;humidity
50702;BME280;36670;50.094;8.496;2023-05-24T00:00:08;100847.53;;;14.53;51.52
50702;BME280;36670;50.094;8.496;2023-05-24T00:02:36;100851.75;;;14.61;50.48
50702;BME280;36670;50.094;8.496;2023-05-24T00:05:01;100845.38;;;14.60;51.23
50702;BME280;36670;50.094;8.496;2023-05-24T00:07:27;100852.44;;;14.73;50.22
50702;BME280;36670;50.094;8.496;2023-05-24T00:09:52;100850.47;;;14.74;50.88
50702;BME280;36670;50.094;8.496;2023-05-24T00:12:17;100854.38;;;14.73;50.20
50702;BME280;36670;50.094;8.496;2023-05-24T00:14:42;100850.06;;;14.92;50.13
50702;BME280;36670;50.094;8.496;2023-05-24T00:17:07;100847.56;;;14.96;49.89
50702;BME280;36670;50.094;8.496;2023-05-24T00:19:32;100851.66;;;14.83;50.29
50702;BME280;36670;50.094;8.496;2023-05-24T00:21:58;100842.31;;;14.99;50.00
50702;BME280;36670;50.094;8.496;2023-05-24T00:24:23;100835.84;;;14.89;50.48
50702;BME280;36670;50.094;8.496;2023-05-24T00:26:48;100852.47;;;14.78;49.94
50702;BME280;36670;50.094;8.496;2023-05-24T00:29:13;100838.84;;;14.77;50.27
50702;BME280;36670;50.094;8.496;2023-05-24T00:31:38;100853.63;;;14.88;49.62
50702;BME280;36670;50.094;8.496;2023-05-24T00:34:04;100849.59;;;14.63;50.58
50702;BME280;36670;50.094;8.496;2023-05-24T00:36:29;100855.09;;;14.25;50.82
50702;BME280;36670;50.094;8.496;2023-05-24T00:38:55;100850.88;;;14.23;51.12
50702;BME280;36670;50.094;8.496;2023-05-24T00:41:20;100848.59;;;14.47;50.39
50702;BME280;36670;50.094;8.496;2023-05-24T00:43:45;100845.16;;;14.34;50.89
50702;BME280;36670;50.094;8.496;2023-05-24T00:46:15;100857.78;;;13.65;52.12
50702;BME280;36670;50.094;8.496;2023-05-24T00:48:41;100853.47;;;13.53;52.75
50702;BME280;36670;50.094;8.496;2023-05-24T00:51:07;100852.41;;;13.81;51.43
50702;BME280;36670;50.094;8.496;2023-05-24T00:53:32;100856.50;;;13.51;52.63
50702;BME280;36670;50.094;8.496;2023-05-24T00:55:59;100863.66;;;13.47;52.01
50702;BME280;36670;50.094;8.496;2023-05-24T00:58:24;100861.34;;;13.39;52.30
50702;BME280;36670;50.094;8.496;2023-05-24T01:00:55;100863.97;;;13.28;53.26
50702;BME280;36670;50.094;8.496;2023-05-24T01:03:23;100866.00;;;13.16;53.28
50702;BME280;36670;50.094;8.496;2023-05-24T01:05:49;100867.16;;;13.37;53.16
50702;BME280;36670;50.094;8.496;2023-05-24T01:08:26;100860.91;;;13.08;53.70
50702;BME280;36670;50.094;8.496;2023-05-24T01:11:03;100865.00;;;13.22;52.59
50702;BME280;36670;50.094;8.496;2023-05-24T01:13:32;100873.59;;;13.04;53.41
50702;BME280;36670;50.094;8.496;2023-05-24T01:16:03;100877.97;;;13.17;53.42
50702;BME280;36670;50.094;8.496;2023-05-24T01:18:32;100868.00;;;13.21;53.14
50702;BME280;36670;50.094;8.496;2023-05-24T01:21:00;100873.81;;;13.19;52.98
50702;BME280;36670;50.094;8.496;2023-05-24T01:23:46;100870.66;;;13.10;52.78
50702;BME280;36670;50.094;8.496;2023-05-24T01:28:46;100863.78;;;12.96;52.93
50702;BME280;36670;50.094;8.496;2023-05-24T01:31:12;100858.06;;;13.42;52.73
50702;BME280;36670;50.094;8.496;2023-05-24T01:33:42;100855.00;;;13.21;52.84
50702;BME280;36670;50.094;8.496;2023-05-24T01:36:07;100855.63;;;13.06;53.57
50702;BME280;36670;50.094;8.496;2023-05-24T01:38:32;100856.47;;;13.29;52.17
50702;BME280;36670;50.094;8.496;2023-05-24T01:41:00;100854.31;;;13.53;52.51
50702;BME280;36670;50.094;8.496;2023-05-24T01:43:36;100857.00;;;13.70;52.40
50702;BME280;36670;50.094;8.496;2023-05-24T01:46:08;100861.34;;;13.39;52.63
50702;BME280;36670;50.094;8.496;2023-05-24T01:48:58;100861.53;;;13.32;52.50
50702;BME280;36670;50.094;8.496;2023-05-24T01:51:24;100863.94;;;13.06;53.60
50702;BME280;36670;50.094;8.496;2023-05-24T01:53:54;100856.00;;;12.76;54.05
50702;BME280;36670;50.094;8.496;2023-05-24T01:56:22;100859.78;;;12.87;54.26
50702;BME280;36670;50.094;8.496;2023-05-24T01:58:49;100860.84;;;12.86;53.81
50702;BME280;36670;50.094;8.496;2023-05-24T02:01:16;100859.72;;;13.04;52.88
50702;BME280;36670;50.094;8.496;2023-05-24T02:03:41;100866.69;;;12.67;54.44
50702;BME280;36670;50.094;8.496;2023-05-24T02:06:07;100852.84;;;12.50;54.15
50702;BME280;36670;50.094;8.496;2023-05-24T02:08:32;100854.25;;;12.70;53.90
50702;BME280;36670;50.094;8.496;2023-05-24T02:10:57;100854.53;;;12.51;53.87
50702;BME280;36670;50.094;8.496;2023-05-24T02:13:22;100845.44;;;12.73;53.33
50702;BME280;36670;50.094;8.496;2023-05-24T02:15:47;100855.13;;;12.92;52.65
50702;BME280;36670;50.094;8.496;2023-05-24T02:18:13;100851.06;;;12.78;53.40
50702;BME280;36670;50.094;8.496;2023-05-24T02:20:39;100851.97;;;12.84;52.58
50702;BME280;36670;50.094;8.496;2023-05-24T02:23:04;100852.66;;;12.74;52.28
50702;BME280;36670;50.094;8.496;2023-05-24T02:25:29;100858.28;;;12.62;52.81
50702;BME280;36670;50.094;8.496;2023-05-24T02:27:55;100849.97;;;12.45;53.24
50702;BME280;36670;50.094;8.496;2023-05-24T02:30:20;100863.97;;;12.55;52.30
50702;BME280;36670;50.094;8.496;2023-05-24T02:32:46;100861.22;;;12.21;53.49
50702;BME280;36670;50.094;8.496;2023-05-24T02:35:11;100858.13;;;12.35;52.96
50702;BME280;36670;50.094;8.496;2023-05-24T02:37:36;100860.72;;;12.58;53.11
50702;BME280;36670;50.094;8.496;2023-05-24T02:40:01;100865.50;;;12.46;52.63
50702;BME280;36670;50.094;8.496;2023-05-24T02:42:27;100859.22;;;12.51;53.15
50702;BME280;36670;50.094;8.496;2023-05-24T02:44:52;100864.25;;;12.37;52.80
50702;BME280;36670;50.094;8.496;2023-05-24T02:47:18;100853.34;;;12.47;52.48
50702;BME280;36670;50.094;8.496;2023-05-24T02:49:43;100869.53;;;12.38;52.94
50702;BME280;36670;50.094;8.496;2023-05-24T02:52:08;100871.72;;;12.36;53.61
50702;BME280;36670;50.094;8.496;2023-05-24T02:54:34;100862.75;;;12.29;52.77
50702;BME280;36670;50.094;8.496;2023-05-24T02:57:00;100863.56;;;12.29;53.21
50702;BME280;36670;50.094;8.496;2023-05-24T02:59:26;100879.72;;;12.04;54.18
50702;BME280;36670;50.094;8.496;2023-05-24T03:01:51;100876.72;;;12.05;53.76
50702;BME280;36670;50.094;8.496;2023-05-24T03:04:17;100870.13;;;12.23;53.70
50702;BME280;36670;50.094;8.496;2023-05-24T03:06:42;100868.94;;;12.36;53.05
50702;BME280;36670;50.094;8.496;2023-05-24T03:09:07;100864.66;;;12.45;52.29
50702;BME280;36670;50.094;8.496;2023-05-24T03:11:33;100868.59;;;12.33;52.97
50702;BME280;36670;50.094;8.496;2023-05-24T03:13:58;100869.88;;;12.25;52.75
50702;BME280;36670;50.094;8.496;2023-05-24T03:16:23;100868.28;;;12.29;52.29
50702;BME280;36670;50.094;8.496;2023-05-24T03:18:49;100866.25;;;12.41;52.24
50702;BME280;36670;50.094;8.496;2023-05-24T03:21:15;100865.41;;;12.41;52.39
50702;BME280;36670;50.094;8.496;2023-05-24T03:23:40;100869.97;;;12.47;52.27
50702;BME280;36670;50.094;8.496;2023-05-24T03:26:06;100860.81;;;12.29;52.54
50702;BME280;36670;50.094;8.496;2023-05-24T03:28:31;100863.41;;;12.19;52.98
50702;BME280;36670;50.094;8.496;2023-05-24T03:30:57;100872.50;;;12.03;53.33
50702;BME280;36670;50.094;8.496;2023-05-24T03:33:22;100868.06;;;12.02;53.13
50702;BME280;36670;50.094;8.496;2023-05-24T03:35:48;100874.81;;;12.23;52.53
50702;BME280;36670;50.094;8.496;2023-05-24T03:38:13;100878.44;;;12.23;52.80
50702;BME280;36670;50.094;8.496;2023-05-24T03:40:38;100875.22;;;12.32;52.71
50702;BME280;36670;50.094;8.496;2023-05-24T03:43:03;100881.34;;;12.17;53.32
50702;BME280;36670;50.094;8.496;2023-05-24T03:45:28;100884.66;;;12.02;53.41
50702;BME280;36670;50.094;8.496;2023-05-24T03:47:54;100879.13;;;11.90;54.00
50702;BME280;36670;50.094;8.496;2023-05-24T03:50:19;100882.72;;;11.73;53.76
50702;BME280;36670;50.094;8.496;2023-05-24T03:52:44;100880.19;;;11.72;53.96
50702;BME280;36670;50.094;8.496;2023-05-24T03:55:11;100885.53;;;11.90;53.69
50702;BME280;36670;50.094;8.496;2023-05-24T03:57:36;100887.09;;;11.86;53.66
50702;BME280;36670;50.094;8.496;2023-05-24T04:00:01;100895.25;;;11.93;53.40
50702;BME280;36670;50.094;8.496;2023-05-24T04:02:26;100894.59;;;11.86;53.47
50702;BME280;36670;50.094;8.496;2023-05-24T04:04:51;100889.41;;;12.35;52.94
50702;BME280;36670;50.094;8.496;2023-05-24T04:07:17;100883.78;;;12.81;51.16
50702;BME280;36670;50.094;8.496;2023-05-24T04:09:42;100880.25;;;13.03;50.80
50702;BME280;36670;50.094;8.496;2023-05-24T04:12:07;100883.38;;;13.28;50.10
50702;BME280;36670;50.094;8.496;2023-05-24T04:14:33;100880.72;;;13.83;49.98
50702;BME280;36670;50.094;8.496;2023-05-24T04:16:59;100888.56;;;14.13;48.44
50702;BME280;36670;50.094;8.496;2023-05-24T04:19:26;100876.84;;;14.39;48.96
50702;BME280;36670;50.094;8.496;2023-05-24T04:21:51;100890.19;;;14.37;48.45
50702;BME280;36670;50.094;8.496;2023-05-24T04:24:16;100891.88;;;14.43;47.40
50702;BME280;36670;50.094;8.496;2023-05-24T04:26:41;100886.13;;;14.82;46.98
50702;BME280;36670;50.094;8.496;2023-05-24T04:29:06;100887.41;;;15.07;46.84
50702;BME280;36670;50.094;8.496;2023-05-24T04:31:32;100888.72;;;14.94;47.42
50702;BME280;36670;50.094;8.496;2023-05-24T04:33:58;100885.75;;;14.68;46.27
50702;BME280;36670;50.094;8.496;2023-05-24T04:36:23;100895.09;;;14.94;46.15
50702;BME280;36670;50.094;8.496;2023-05-24T04:38:49;100887.91;;;14.98;46.35
50702;BME280;36670;50.094;8.496;2023-05-24T04:41:17;100899.63;;;15.06;46.25
50702;BME280;36670;50.094;8.496;2023-05-24T04:43:42;100900.84;;;15.25;44.91
50702;BME280;36670;50.094;8.496;2023-05-24T04:46:07;100909.69;;;15.17;44.65
50702;BME280;36670;50.094;8.496;2023-05-24T04:48:33;100912.50;;;15.70;44.52
50702;BME280;36670;50.094;8.496;2023-05-24T04:50:58;100917.00;;;15.23;44.12
50702;BME280;36670;50.094;8.496;2023-05-24T04:53:23;100911.47;;;15.28;45.14
50702;BME280;36670;50.094;8.496;2023-05-24T04:55:49;100914.88;;;16.04;43.50
50702;BME280;36670;50.094;8.496;2023-05-24T04:58:14;100910.50;;;16.75;42.71
50702;BME280;36670;50.094;8.496;2023-05-24T05:00:40;100908.00;;;16.58;42.74
50702;BME280;36670;50.094;8.496;2023-05-24T05:03:05;100892.81;;;17.47;42.18
50702;BME280;36670;50.094;8.496;2023-05-24T05:05:31;100897.41;;;17.82;39.37
50702;BME280;36670;50.094;8.496;2023-05-24T05:07:56;100888.44;;;17.04;40.44
50702;BME280;36670;50.094;8.496;2023-05-24T05:10:21;100884.19;;;17.38;40.74
50702;BME280;36670;50.094;8.496;2023-05-24T05:12:46;100885.06;;;17.99;40.12
50702;BME280;36670;50.094;8.496;2023-05-24T05:15:11;100889.69;;;18.58;39.16
50702;BME280;36670;50.094;8.496;2023-05-24T05:17:37;100891.41;;;18.89;38.51
50702;BME280;36670;50.094;8.496;2023-05-24T05:20:03;100888.91;;;18.82;37.52
50702;BME280;36670;50.094;8.496;2023-05-24T05:22:28;100899.22;;;19.16;37.54
50702;BME280;36670;50.094;8.496;2023-05-24T05:24:53;100900.31;;;18.91;37.59
50702;BME280;36670;50.094;8.496;2023-05-24T05:27:18;100896.84;;;19.04;37.17
50702;BME280;36670;50.094;8.496;2023-05-24T05:29:44;100907.44;;;17.94;37.76
50702;BME280;36670;50.094;8.496;2023-05-24T05:32:09;100910.91;;;17.65;38.54
50702;BME280;36670;50.094;8.496;2023-05-24T05:34:34;100909.78;;;18.60;37.59
50702;BME280;36670;50.094;8.496;2023-05-24T05:36:59;100920.75;;;18.52;38.07
50702;BME280;36670;50.094;8.496;2023-05-24T05:39:25;100902.41;;;18.35;36.65
50702;BME280;36670;50.094;8.496;2023-05-24T05:41:50;100927.09;;;17.63;38.56
50702;BME280;36670;50.094;8.496;2023-05-24T05:44:16;100931.78;;;17.78;39.16
50702;BME280;36670;50.094;8.496;2023-05-24T05:46:41;100925.59;;;17.86;37.75
50702;BME280;36670;50.094;8.496;2023-05-24T05:49:09;100918.75;;;18.18;37.25
50702;BME280;36670;50.094;8.496;2023-05-24T05:51:35;100917.56;;;17.69;38.27
50702;BME280;36670;50.094;8.496;2023-05-24T05:54:00;100922.47;;;18.03;38.60
50702;BME280;36670;50.094;8.496;2023-05-24T05:56:26;100927.38;;;17.66;38.05
50702;BME280;36670;50.094;8.496;2023-05-24T05:58:51;100923.53;;;17.31;38.87
50702;BME280;36670;50.094;8.496;2023-05-24T06:01:16;100931.81;;;17.72;38.50
50702;BME280;36670;50.094;8.496;2023-05-24T06:03:41;100925.97;;;18.29;37.14
50702;BME280;36670;50.094;8.496;2023-05-24T06:06:07;100933.06;;;18.51;36.98
50702;BME280;36670;50.094;8.496;2023-05-24T06:08:32;100942.09;;;18.77;36.73
50702;BME280;36670;50.094;8.496;2023-05-24T06:10:59;100938.34;;;18.13;37.23
50702;BME280;36670;50.094;8.496;2023-05-24T06:13:24;100943.97;;;17.16;38.55
50702;BME280;36670;50.094;8.496;2023-05-24T06:15:52;100945.34;;;17.29;39.02
50702;BME280;36670;50.094;8.496;2023-05-24T06:18:17;100964.88;;;16.78;39.81
50702;BME280;36670;50.094;8.496;2023-05-24T06:20:42;100965.84;;;16.10;40.84
50702;BME280;36670;50.094;8.496;2023-05-24T06:23:08;100957.34;;;16.58;40.99
50702;BME280;36670;50.094;8.496;2023-05-24T06:25:33;100967.16;;;16.91;40.07
50702;BME280;36670;50.094;8.496;2023-05-24T06:27:59;100970.44;;;16.72;40.43
50702;BME280;36670;50.094;8.496;2023-05-24T06:30:24;100969.75;;;16.14;41.24
50702;BME280;36670;50.094;8.496;2023-05-24T06:32:50;100972.50;;;15.45;43.09
50702;BME280;36670;50.094;8.496;2023-05-24T06:35:15;100959.03;;;15.32;42.79
50702;BME280;36670;50.094;8.496;2023-05-24T06:37:40;100961.50;;;15.23;43.97
50702;BME280;36670;50.094;8.496;2023-05-24T06:40:06;100960.00;;;15.48;43.20
50702;BME280;36670;50.094;8.496;2023-05-24T06:42:33;100963.28;;;14.70;44.26
50702;BME280;36670;50.094;8.496;2023-05-24T06:44:58;100966.38;;;14.19;45.61
50702;BME280;36670;50.094;8.496;2023-05-24T06:47:24;100964.25;;;14.53;45.07
50702;BME280;36670;50.094;8.496;2023-05-24T06:49:49;100958.16;;;14.56;45.62
50702;BME280;36670;50.094;8.496;2023-05-24T06:52:14;100946.34;;;14.44;45.76
50702;BME280;36670;50.094;8.496;2023-05-24T06:54:40;100957.19;;;14.18;45.64
50702;BME280;36670;50.094;8.496;2023-05-24T06:57:05;100957.88;;;14.58;45.19
50702;BME280;36670;50.094;8.496;2023-05-24T06:59:30;100954.03;;;14.91;44.59
50702;BME280;36670;50.094;8.496;2023-05-24T07:01:55;100950.94;;;15.25;43.70
50702;BME280;36670;50.094;8.496;2023-05-24T07:04:24;100947.13;;;15.36;43.64
50702;BME280;36670;50.094;8.496;2023-05-24T07:06:49;100947.31;;;15.78;43.32
50702;BME280;36670;50.094;8.496;2023-05-24T07:09:16;100950.47;;;15.92;43.36
50702;BME280;36670;50.094;8.496;2023-05-24T07:11:41;100954.53;;;15.74;43.02
50702;BME280;36670;50.094;8.496;2023-05-24T07:14:06;100948.78;;;15.91;42.30
50702;BME280;36670;50.094;8.496;2023-05-24T07:16:31;100946.88;;;15.43;43.03
50702;BME280;36670;50.094;8.496;2023-05-24T07:18:56;100948.53;;;15.92;42.44
50702;BME280;36670;50.094;8.496;2023-05-24T07:21:22;100943.91;;;15.65;42.14
50702;BME280;36670;50.094;8.496;2023-05-24T07:23:49;100947.00;;;15.69;42.64
50702;BME280;36670;50.094;8.496;2023-05-24T07:26:14;100947.28;;;15.67;43.09
50702;BME280;36670;50.094;8.496;2023-05-24T07:28:39;100957.31;;;15.68;42.65
50702;BME280;36670;50.094;8.496;2023-05-24T07:31:05;100966.63;;;15.95;42.74
50702;BME280;36670;50.094;8.496;2023-05-24T07:33:31;100965.94;;;15.72;42.12
50702;BME280;36670;50.094;8.496;2023-05-24T07:35:57;100968.19;;;15.70;43.37
50702;BME280;36670;50.094;8.496;2023-05-24T07:38:22;100968.66;;;15.14;43.15
50702;BME280;36670;50.094;8.496;2023-05-24T07:40:47;100990.25;;;15.01;44.37
50702;BME280;36670;50.094;8.496;2023-05-24T07:43:12;100985.06;;;15.10;43.29
50702;BME280;36670;50.094;8.496;2023-05-24T07:45:38;100992.19;;;15.39;43.19
50702;BME280;36670;50.094;8.496;2023-05-24T07:48:03;100977.94;;;15.78;43.03
50702;BME280;36670;50.094;8.496;2023-05-24T07:50:28;100987.41;;;16.40;41.92
50702;BME280;36670;50.094;8.496;2023-05-24T07:52:55;100971.97;;;16.07;42.20
50702;BME280;36670;50.094;8.496;2023-05-24T07:55:20;100983.66;;;16.03;42.77
50702;BME280;36670;50.094;8.496;2023-05-24T07:57:46;100976.84;;;16.58;41.73
50702;BME280;36670;50.094;8.496;2023-05-24T08:00:11;100970.97;;;16.49;40.96
50702;BME280;36670;50.094;8.496;2023-05-24T08:02:38;100982.47;;;17.04;40.33
50702;BME280;36670;50.094;8.496;2023-05-24T08:05:03;100968.50;;;16.94;40.85
50702;BME280;36670;50.094;8.496;2023-05-24T08:07:29;100976.28;;;16.86;39.35
50702;BME280;36670;50.094;8.496;2023-05-24T08:09:54;100957.63;;;17.13;39.15
50702;BME280;36670;50.094;8.496;2023-05-24T08:12:19;100959.81;;;16.64;39.86
50702;BME280;36670;50.094;8.496;2023-05-24T08:14:44;100965.16;;;16.81;40.43
50702;BME280;36670;50.094;8.496;2023-05-24T08:17:10;100977.75;;;15.42;41.13
50702;BME280;36670;50.094;8.496;2023-05-24T08:19:35;100984.06;;;14.89;43.27
50702;BME280;36670;50.094;8.496;2023-05-24T08:22:00;100984.06;;;14.89;43.38
50702;BME280;36670;50.094;8.496;2023-05-24T08:24:28;100981.50;;;14.88;43.16
50702;BME280;36670;50.094;8.496;2023-05-24T08:26:54;100984.97;;;14.67;43.71
50702;BME280;36670;50.094;8.496;2023-05-24T08:29:19;100988.84;;;14.66;44.03
50702;BME280;36670;50.094;8.496;2023-05-24T08:31:45;100991.38;;;14.46;44.30
50702;BME280;36670;50.094;8.496;2023-05-24T08:34:10;100987.50;;;14.47;44.45
50702;BME280;36670;50.094;8.496;2023-05-24T08:36:36;100981.13;;;14.74;44.26
50702;BME280;36670;50.094;8.496;2023-05-24T08:39:03;100989.28;;;14.58;44.87
50702;BME280;36670;50.094;8.496;2023-05-24T08:41:28;100989.72;;;14.45;44.94
50702;BME280;36670;50.094;8.496;2023-05-24T08:43:56;100993.81;;;13.93;46.09
50702;BME280;36670;50.094;8.496;2023-05-24T08:46:24;100987.81;;;14.23;44.74
50702;BME280;36670;50.094;8.496;2023-05-24T08:48:49;100978.88;;;14.43;44.29
50702;BME280;36670;50.094;8.496;2023-05-24T08:51:15;100981.16;;;14.24;45.19
50702;BME280;36670;50.094;8.496;2023-05-24T08:53:41;100984.13;;;14.17;45.64
50702;BME280;36670;50.094;8.496;2023-05-24T08:56:12;100995.09;;;14.57;44.85
50702;BME280;36670;50.094;8.496;2023-05-24T08:58:37;100980.88;;;14.75;45.19
50702;BME280;36670;50.094;8.496;2023-05-24T09:01:02;100982.66;;;15.24;44.32
50702;BME280;36670;50.094;8.496;2023-05-24T09:03:28;100972.84;;;15.59;44.79
50702;BME280;36670;50.094;8.496;2023-05-24T09:05:53;100969.59;;;15.78;43.11
50702;BME280;36670;50.094;8.496;2023-05-24T09:08:19;100980.63;;;15.57;44.50
50702;BME280;36670;50.094;8.496;2023-05-24T09:10:45;100975.59;;;15.11;44.46
50702;BME280;36670;50.094;8.496;2023-05-24T09:13:11;100979.47;;;15.53;43.81
50702;BME280;36670;50.094;8.496;2023-05-24T09:15:39;100973.41;;;15.61;42.91
50702;BME280;36670;50.094;8.496;2023-05-24T09:18:04;100983.47;;;15.73;42.97
50702;BME280;36670;50.094;8.496;2023-05-24T09:20:29;100981.75;;;16.09;41.63
50702;BME280;36670;50.094;8.496;2023-05-24T09:22:54;100979.25;;;16.18;42.33
50702;BME280;36670;50.094;8.496;2023-05-24T09:25:21;100977.13;;;16.51;41.94
50702;BME280;36670;50.094;8.496;2023-05-24T09:27:50;100975.50;;;16.96;42.72
50702;BME280;36670;50.094;8.496;2023-05-24T09:30:15;100957.59;;;17.38;40.74
50702;BME280;36670;50.094;8.496;2023-05-24T09:32:41;100967.91;;;17.38;39.22
50702;BME280;36670;50.094;8.496;2023-05-24T09:35:17;100962.69;;;16.90;40.60
50702;BME280;36670;50.094;8.496;2023-05-24T09:37:42;100951.28;;;17.98;40.63
50702;BME280;36670;50.094;8.496;2023-05-24T09:40:17;100956.75;;;18.64;36.76
50702;BME280;36670;50.094;8.496;2023-05-24T09:42:46;100966.75;;;17.54;38.40
50702;BME280;36670;50.094;8.496;2023-05-24T09:45:15;100953.63;;;17.60;39.57
50702;BME280;36670;50.094;8.496;2023-05-24T09:47:41;100951.50;;;18.07;39.46
50702;BME280;36670;50.094;8.496;2023-05-24T09:50:13;100946.25;;;18.45;38.29
50702;BME280;36670;50.094;8.496;2023-05-24T09:52:39;100951.63;;;17.76;36.81
50702;BME280;36670;50.094;8.496;2023-05-24T09:55:14;100946.91;;;17.61;36.03
50702;BME280;36670;50.094;8.496;2023-05-24T09:57:40;100935.63;;;17.97;37.16
50702;BME280;36670;50.094;8.496;2023-05-24T10:00:08;100925.28;;;18.87;35.79
50702;BME280;36670;50.094;8.496;2023-05-24T10:02:41;100926.53;;;19.30;36.02
50702;BME280;36670;50.094;8.496;2023-05-24T10:05:08;100926.84;;;18.59;36.17
50702;BME280;36670;50.094;8.496;2023-05-24T10:07:34;100929.25;;;18.36;36.64
50702;BME280;36670;50.094;8.496;2023-05-24T10:09:59;100920.94;;;18.66;36.75
50702;BME280;36670;50.094;8.496;2023-05-24T10:12:25;100924.09;;;18.09;36.86
50702;BME280;36670;50.094;8.496;2023-05-24T10:14:50;100926.56;;;18.21;36.66
50702;BME280;36670;50.094;8.496;2023-05-24T10:17:16;100937.78;;;18.11;37.48
50702;BME280;36670;50.094;8.496;2023-05-24T10:19:41;100929.88;;;18.28;38.07
50702;BME280;36670;50.094;8.496;2023-05-24T10:22:06;100935.41;;;18.73;36.13
50702;BME280;36670;50.094;8.496;2023-05-24T10:24:34;100932.50;;;18.54;36.96
50702;BME280;36670;50.094;8.496;2023-05-24T10:27:02;100933.16;;;18.40;36.22
50702;BME280;36670;50.094;8.496;2023-05-24T10:32:13;100930.66;;;18.73;35.39
50702;BME280;36670;50.094;8.496;2023-05-24T10:34:39;100924.50;;;18.76;35.75
50702;BME280;36670;50.094;8.496;2023-05-24T10:37:05;100924.09;;;18.93;35.47
50702;BME280;36670;50.094;8.496;2023-05-24T10:39:32;100919.59;;;19.51;35.73
50702;BME280;36670;50.094;8.496;2023-05-24T10:42:01;100920.94;;;19.54;34.29
50702;BME280;36670;50.094;8.496;2023-05-24T10:44:27;100913.28;;;18.76;35.18
50702;BME280;36670;50.094;8.496;2023-05-24T10:47:08;100915.66;;;18.99;35.53
50702;BME280;36670;50.094;8.496;2023-05-24T10:49:34;100904.81;;;19.16;34.78
50702;BME280;36670;50.094;8.496;2023-05-24T10:52:00;100898.94;;;19.66;35.23
50702;BME280;36670;50.094;8.496;2023-05-24T10:54:26;100902.97;;;19.79;33.65
50702;BME280;36670;50.094;8.496;2023-05-24T10:56:51;100903.13;;;19.44;33.51
50702;BME280;36670;50.094;8.496;2023-05-24T10:59:21;100902.22;;;19.25;34.32
50702;BME280;36670;50.094;8.496;2023-05-24T11:01:52;100905.41;;;18.84;34.88
50702;BME280;36670;50.094;8.496;2023-05-24T11:04:18;100890.31;;;19.38;35.35
50702;BME280;36670;50.094;8.496;2023-05-24T11:06:44;100890.38;;;19.57;34.12
50702;BME280;36670;50.094;8.496;2023-05-24T11:09:09;100902.09;;;19.35;34.80
50702;BME280;36670;50.094;8.496;2023-05-24T11:11:34;100884.72;;;19.63;34.34
50702;BME280;36670;50.094;8.496;2023-05-24T11:14:01;100886.13;;;19.36;35.30
50702;BME280;36670;50.094;8.496;2023-05-24T11:16:33;100882.09;;;19.23;34.97
50702;BME280;36670;50.094;8.496;2023-05-24T11:19:10;100892.63;;;18.72;35.24
50702;BME280;36670;50.094;8.496;2023-05-24T11:21:35;100887.63;;;18.69;35.41
50702;BME280;36670;50.094;8.496;2023-05-24T11:24:01;100899.81;;;18.49;34.68
50702;BME280;36670;50.094;8.496;2023-05-24T11:26:27;100885.38;;;17.92;35.26
50702;BME280;36670;50.094;8.496;2023-05-24T11:28:52;100892.44;;;18.24;35.81
50702;BME280;36670;50.094;8.496;2023-05-24T11:31:18;100890.03;;;18.07;35.86
50702;BME280;36670;50.094;8.496;2023-05-24T11:33:50;100886.53;;;18.65;35.62
50702;BME280;36670;50.094;8.496;2023-05-24T11:36:15;100882.63;;;19.49;34.55
50702;BME280;36670;50.094;8.496;2023-05-24T11:38:41;100880.41;;;19.70;34.32
50702;BME280;36670;50.094;8.496;2023-05-24T11:41:06;100880.47;;;20.27;33.20
50702;BME280;36670;50.094;8.496;2023-05-24T11:43:32;100875.25;;;20.02;34.13
50702;BME280;36670;50.094;8.496;2023-05-24T11:45:57;100865.78;;;19.54;33.75
50702;BME280;36670;50.094;8.496;2023-05-24T11:48:22;100882.50;;;19.11;34.44
50702;BME280;36670;50.094;8.496;2023-05-24T11:50:48;100883.59;;;18.51;33.96
50702;BME280;36670;50.094;8.496;2023-05-24T11:53:14;100880.00;;;18.46;34.33
50702;BME280;36670;50.094;8.496;2023-05-24T11:55:40;100886.47;;;18.70;33.83
50702;BME280;36670;50.094;8.496;2023-05-24T11:58:10;100870.06;;;19.47;33.91
50702;BME280;36670;50.094;8.496;2023-05-24T12:00:36;100860.69;;;20.19;33.40
50702;BME280;36670;50.094;8.496;2023-05-24T12:03:02;100859.06;;;20.51;32.67
50702;BME280;36670;50.094;8.496;2023-05-24T12:05:31;100867.50;;;20.84;29.96
50702;BME280;36670;50.094;8.496;2023-05-24T12:08:03;100861.91;;;19.69;31.61
50702;BME280;36670;50.094;8.496;2023-05-24T12:10:30;100865.75;;;19.30;32.10
50702;BME280;36670;50.094;8.496;2023-05-24T12:12:56;100870.84;;;19.95;32.36
50702;BME280;36670;50.094;8.496;2023-05-24T12:15:21;100866.06;;;19.53;32.42
50702;BME280;36670;50.094;8.496;2023-05-24T12:17:46;100869.78;;;18.65;33.83
50702;BME280;36670;50.094;8.496;2023-05-24T12:20:14;100871.50;;;18.90;33.83
50702;BME280;36670;50.094;8.496;2023-05-24T12:22:46;100871.22;;;18.92;34.45
50702;BME280;36670;50.094;8.496;2023-05-24T12:25:12;100870.69;;;18.55;34.84
50702;BME280;36670;50.094;8.496;2023-05-24T12:27:41;100875.41;;;18.60;35.22
50702;BME280;36670;50.094;8.496;2023-05-24T12:30:11;100878.13;;;18.36;35.27
50702;BME280;36670;50.094;8.496;2023-05-24T12:32:42;100881.91;;;18.50;35.60
50702;BME280;36670;50.094;8.496;2023-05-24T12:35:07;100889.47;;;18.50;35.53
50702;BME280;36670;50.094;8.496;2023-05-24T12:37:34;100881.28;;;18.19;36.65
50702;BME280;36670;50.094;8.496;2023-05-24T12:40:00;100877.22;;;18.01;36.08
50702;BME280;36670;50.094;8.496;2023-05-24T12:42:25;100874.34;;;18.16;36.47
50702;BME280;36670;50.094;8.496;2023-05-24T12:44:51;100863.00;;;17.97;37.24
50702;BME280;36670;50.094;8.496;2023-05-24T12:47:18;100865.56;;;17.83;36.87
50702;BME280;36670;50.094;8.496;2023-05-24T12:49:43;100869.50;;;17.77;37.10